createdAt,value
2022-11-27T00:00:47.832Z,35.28
2022-11-27T00:03:14.684Z,35.05
2022-11-27T00:05:42.017Z,36.47
2022-11-27T00:08:09.166Z,35.40
2022-11-27T00:10:35.979Z,34.30
2022-11-27T00:13:03.073Z,35.33
2022-11-27T00:15:30.345Z,37.22
2022-11-27T00:17:57.889Z,33.47
2022-11-27T00:20:28.580Z,37.75
2022-11-27T00:22:57.121Z,35.83
2022-11-27T00:25:23.927Z,34.78
2022-11-27T00:27:50.670Z,35.60
2022-11-27T00:30:17.640Z,32.90
2022-11-27T00:32:45.204Z,33.85
2022-11-27T00:35:15.030Z,31.10
2022-11-27T00:37:41.792Z,32.38
2022-11-27T00:40:08.962Z,31.95
2022-11-27T00:42:36.309Z,32.15
2022-11-27T00:45:03.285Z,32.60
2022-11-27T00:47:30.063Z,32.85
2022-11-27T00:49:56.917Z,33.40
2022-11-27T00:52:24.067Z,34.13
2022-11-27T00:54:52.034Z,31.58
2022-11-27T00:57:18.779Z,29.83
2022-11-27T00:59:45.596Z,30.90
2022-11-27T01:02:13.481Z,34.17
2022-11-27T01:04:40.880Z,29.00
2022-11-27T01:07:08.275Z,33.50
2022-11-27T01:09:35.499Z,30.65
2022-11-27T01:12:02.264Z,32.25
2022-11-27T01:14:29.081Z,29.40
2022-11-27T01:16:55.884Z,30.73
2022-11-27T01:19:22.677Z,31.27
2022-11-27T01:21:49.864Z,32.63
2022-11-27T01:24:16.996Z,33.08
2022-11-27T01:26:44.681Z,33.33
2022-11-27T01:29:12.455Z,31.67
2022-11-27T01:31:39.735Z,31.17
2022-11-27T01:34:08.858Z,35.25
2022-11-27T01:36:36.251Z,33.10
2022-11-27T01:39:03.914Z,32.45
2022-11-27T01:41:35.685Z,32.53
2022-11-27T01:44:27.508Z,34.83
2022-11-27T01:47:14.740Z,35.65
2022-11-27T01:49:47.707Z,32.40
2022-11-27T01:52:20.542Z,33.17
2022-11-27T01:55:03.967Z,35.95
2022-11-27T01:57:41.588Z,36.28
2022-11-27T02:00:13.033Z,35.08
2022-11-27T02:02:42.117Z,36.65
2022-11-27T02:05:11.187Z,37.05
2022-11-27T02:07:38.637Z,34.38
2022-11-27T02:10:07.295Z,34.13
2022-11-27T02:13:01.188Z,33.80
2022-11-27T02:15:38.806Z,32.95
2022-11-27T02:18:11.141Z,38.55
2022-11-27T02:20:51.767Z,34.92
2022-11-27T02:23:46.700Z,33.97
2022-11-27T02:26:52.432Z,39.45
2022-11-27T02:29:27.665Z,38.50
2022-11-27T02:32:16.886Z,37.85
2022-11-27T02:34:53.823Z,42.78
2022-11-27T02:37:26.897Z,37.60
2022-11-27T02:40:32.407Z,38.65
2022-11-27T02:43:19.889Z,38.72
2022-11-27T02:45:52.445Z,38.47
2022-11-27T02:48:23.779Z,39.20
2022-11-27T02:50:52.003Z,39.45
2022-11-27T02:53:25.362Z,42.00
2022-11-27T02:55:53.941Z,39.13
2022-11-27T02:58:28.063Z,38.78
2022-11-27T03:00:56.855Z,35.40
2022-11-27T03:03:31.256Z,38.65
2022-11-27T03:06:02.660Z,37.97
2022-11-27T03:08:59.508Z,34.22
2022-11-27T03:11:27.772Z,41.28
2022-11-27T03:13:56.802Z,36.90
2022-11-27T03:16:47.823Z,32.30
2022-11-27T03:19:30.844Z,32.60
2022-11-27T03:22:00.288Z,33.05
2022-11-27T03:24:29.373Z,35.35
2022-11-27T03:26:58.695Z,29.60
2022-11-27T03:29:35.245Z,32.65
2022-11-27T03:32:04.249Z,31.75
2022-11-27T03:34:31.889Z,32.65
2022-11-27T03:36:58.793Z,32.58
2022-11-27T03:39:26.908Z,29.15
2022-11-27T03:42:12.166Z,30.98
2022-11-27T03:45:02.454Z,30.77
2022-11-27T03:47:56.392Z,30.63
2022-11-27T03:50:35.089Z,30.38
2022-11-27T03:53:21.828Z,28.63
2022-11-27T03:56:10.297Z,29.88
2022-11-27T03:59:09.385Z,32.05
2022-11-27T04:01:36.549Z,30.95
2022-11-27T04:04:03.910Z,28.70
2022-11-27T04:06:31.129Z,28.20
2022-11-27T04:08:57.956Z,26.42
2022-11-27T04:11:25.134Z,31.20
2022-11-27T04:13:54.580Z,28.83
2022-11-27T04:16:21.515Z,32.03
2022-11-27T04:18:48.759Z,30.10
2022-11-27T04:21:16.996Z,31.63
2022-11-27T04:23:44.536Z,30.58
2022-11-27T04:26:11.550Z,34.72
2022-11-27T04:28:38.811Z,30.80
2022-11-27T04:31:06.144Z,31.85
2022-11-27T04:33:33.448Z,32.65
2022-11-27T04:36:00.239Z,30.98
2022-11-27T04:38:27.443Z,29.40
2022-11-27T04:40:54.402Z,31.48
2022-11-27T04:43:21.277Z,28.80
2022-11-27T04:45:48.050Z,28.08
2022-11-27T04:48:14.909Z,31.90
2022-11-27T04:50:42.123Z,29.65
2022-11-27T04:53:08.940Z,28.92
2022-11-27T04:55:36.503Z,29.70
2022-11-27T04:58:04.215Z,30.60
2022-11-27T05:00:31.086Z,32.63
2022-11-27T05:02:58.418Z,28.67
2022-11-27T05:05:25.205Z,27.02
2022-11-27T05:07:52.008Z,29.02
2022-11-27T05:10:18.908Z,30.52
2022-11-27T05:12:46.304Z,26.02
2022-11-27T05:15:13.518Z,29.98
2022-11-27T05:17:40.283Z,28.48
2022-11-27T05:20:08.259Z,27.55
2022-11-27T05:22:35.051Z,29.83
2022-11-27T05:25:03.721Z,29.10
2022-11-27T05:27:30.502Z,32.38
2022-11-27T05:29:57.295Z,27.15
2022-11-27T05:32:24.666Z,30.10
2022-11-27T05:34:52.982Z,29.70
2022-11-27T05:37:20.219Z,25.85
2022-11-27T05:39:47.208Z,25.80
2022-11-27T05:42:14.119Z,29.45
2022-11-27T05:44:41.497Z,26.45
2022-11-27T05:47:08.905Z,28.58
2022-11-27T05:49:36.322Z,29.10
2022-11-27T05:52:03.141Z,30.20
2022-11-27T05:54:29.885Z,29.27
2022-11-27T05:56:57.078Z,31.95
2022-11-27T05:59:24.076Z,30.95
2022-11-27T06:01:51.502Z,27.00
2022-11-27T06:04:19.019Z,27.10
2022-11-27T06:06:45.771Z,26.77
2022-11-27T06:09:13.893Z,24.63
2022-11-27T06:11:41.780Z,26.88
2022-11-27T06:14:10.464Z,28.25
2022-11-27T06:16:37.749Z,27.30
2022-11-27T06:19:05.019Z,25.63
2022-11-27T06:21:31.863Z,27.50
2022-11-27T06:23:59.292Z,27.40
2022-11-27T06:26:30.544Z,29.38
2022-11-27T06:28:58.862Z,29.23
2022-11-27T06:31:28.863Z,28.02
2022-11-27T06:33:56.853Z,29.90
2022-11-27T06:36:27.761Z,29.10
2022-11-27T06:38:54.526Z,31.92
2022-11-27T06:41:25.073Z,27.70
2022-11-27T06:43:52.065Z,24.45
2022-11-27T06:46:22.615Z,30.80
2022-11-27T06:48:51.107Z,26.60
2022-11-27T06:51:21.296Z,25.67
2022-11-27T06:53:48.665Z,24.38
2022-11-27T06:56:18.269Z,25.58
2022-11-27T06:58:46.224Z,24.42
2022-11-27T07:01:15.278Z,28.90
2022-11-27T07:03:42.373Z,30.73
2022-11-27T07:06:13.154Z,30.23
2022-11-27T07:08:39.953Z,28.98
2022-11-27T07:11:13.504Z,30.60
2022-11-27T07:13:41.198Z,29.88
2022-11-27T07:16:10.137Z,32.97
2022-11-27T07:18:41.529Z,28.67
2022-11-27T07:21:09.566Z,27.25
2022-11-27T07:23:37.327Z,27.55
2022-11-27T07:26:27.406Z,30.25
2022-11-27T07:28:54.524Z,26.55
2022-11-27T07:31:28.152Z,23.98
2022-11-27T07:33:56.401Z,25.65
2022-11-27T07:36:29.318Z,26.13
2022-11-27T07:38:56.837Z,26.67
2022-11-27T07:41:23.626Z,22.92
2022-11-27T07:43:50.928Z,19.02
2022-11-27T07:46:23.122Z,23.33
2022-11-27T07:48:52.003Z,23.83
2022-11-27T07:51:22.015Z,20.63
2022-11-27T07:53:52.190Z,24.50
2022-11-27T07:56:22.396Z,20.92
2022-11-27T07:58:49.582Z,20.02
2022-11-27T08:01:20.274Z,22.20
2022-11-27T08:03:48.646Z,23.10
2022-11-27T08:06:19.548Z,20.60
2022-11-27T08:08:47.189Z,20.90
2022-11-27T08:11:23.080Z,21.05
2022-11-27T08:13:51.095Z,21.75
2022-11-27T08:16:19.048Z,22.50
2022-11-27T08:18:46.300Z,25.13
2022-11-27T08:21:13.626Z,26.30
2022-11-27T08:23:41.802Z,26.33
2022-11-27T08:26:10.466Z,23.35
2022-11-27T08:28:38.721Z,25.48
2022-11-27T08:31:07.142Z,24.42
2022-11-27T08:33:34.087Z,24.65
2022-11-27T08:36:03.649Z,24.13
2022-11-27T08:38:31.470Z,22.52
2022-11-27T08:41:02.684Z,23.65
2022-11-27T08:43:31.956Z,19.67
2022-11-27T08:45:59.199Z,18.90
2022-11-27T08:48:26.917Z,18.40
2022-11-27T08:50:53.725Z,19.67
2022-11-27T08:53:20.823Z,17.05
2022-11-27T08:55:47.802Z,18.10
2022-11-27T08:58:15.398Z,16.70
2022-11-27T09:00:42.295Z,16.83
2022-11-27T09:03:11.980Z,15.85
2022-11-27T09:05:45.255Z,15.15
2022-11-27T09:08:20.226Z,16.13
2022-11-27T09:10:47.881Z,15.68
2022-11-27T09:13:15.018Z,14.80
2022-11-27T09:15:43.512Z,16.10
2022-11-27T09:18:10.328Z,16.80
2022-11-27T09:20:37.812Z,14.40
2022-11-27T09:23:08.924Z,14.57
2022-11-27T09:25:42.025Z,15.38
2022-11-27T09:28:09.190Z,14.82
2022-11-27T09:30:37.249Z,18.33
2022-11-27T09:33:04.062Z,19.80
2022-11-27T09:35:30.959Z,20.38
2022-11-27T09:37:58.488Z,16.25
2022-11-27T09:40:25.590Z,18.27
2022-11-27T09:43:17.883Z,17.17
2022-11-27T09:46:03.357Z,20.80
2022-11-27T09:48:48.228Z,20.15
2022-11-27T09:51:35.029Z,18.10
2022-11-27T09:54:22.706Z,20.48
2022-11-27T09:56:53.493Z,18.70
2022-11-27T09:59:23.056Z,15.75
2022-11-27T10:01:53.012Z,21.10
2022-11-27T10:04:22.303Z,18.55
2022-11-27T10:07:29.175Z,37.10
2022-11-27T10:10:49.665Z,19.30
2022-11-27T10:13:53.794Z,45.10
2022-11-27T10:16:33.970Z,41.72
2022-11-27T10:19:29.157Z,21.20
2022-11-27T10:22:01.882Z,22.33
2022-11-27T10:24:44.168Z,17.05
2022-11-27T10:27:43.039Z,18.40
2022-11-27T10:30:21.503Z,19.10
2022-11-27T10:32:56.569Z,19.38
2022-11-27T10:35:30.967Z,18.05
2022-11-27T10:38:10.248Z,14.93
2022-11-27T10:41:09.801Z,16.70
2022-11-27T10:43:39.748Z,14.15
2022-11-27T10:46:15.617Z,14.30
2022-11-27T10:48:43.130Z,14.82
2022-11-27T10:51:19.898Z,17.70
2022-11-27T10:53:50.959Z,16.90
2022-11-27T10:56:21.086Z,16.17
2022-11-27T10:59:30.063Z,15.73
2022-11-27T11:02:01.705Z,14.13
2022-11-27T11:04:38.871Z,19.17
2022-11-27T11:07:27.192Z,13.55
2022-11-27T11:09:56.825Z,15.23
2022-11-27T11:12:24.212Z,24.15
2022-11-27T11:14:57.028Z,17.80
2022-11-27T11:17:30.817Z,18.58
2022-11-27T11:19:58.257Z,19.20
2022-11-27T11:22:28.098Z,15.05
2022-11-27T11:24:55.596Z,18.92
2022-11-27T11:27:28.361Z,17.20
2022-11-27T11:29:56.121Z,13.20
2022-11-27T11:32:30.387Z,16.58
2022-11-27T11:35:01.316Z,13.15
2022-11-27T11:37:34.214Z,13.15
2022-11-27T11:40:17.016Z,12.90
2022-11-27T11:42:54.323Z,12.10
2022-11-27T11:45:28.645Z,13.63
2022-11-27T11:48:03.914Z,12.02
2022-11-27T11:50:48.585Z,14.35
2022-11-27T11:53:46.082Z,12.75
2022-11-27T11:56:16.022Z,11.25
2022-11-27T11:58:49.610Z,10.90
2022-11-27T12:01:36.629Z,12.50
2022-11-27T12:04:22.839Z,10.43
2022-11-27T12:07:02.545Z,11.43
2022-11-27T12:09:46.875Z,10.90
2022-11-27T12:12:38.058Z,11.52
2022-11-27T12:15:27.203Z,12.18
2022-11-27T12:18:11.218Z,13.65
2022-11-27T12:21:13.931Z,11.63
2022-11-27T12:24:02.138Z,12.10
2022-11-27T12:26:35.842Z,13.20
2022-11-27T12:29:40.294Z,11.45
2022-11-27T12:32:32.135Z,12.82
2022-11-27T12:35:06.116Z,14.75
2022-11-27T12:38:01.586Z,11.55
2022-11-27T12:40:55.667Z,11.23
2022-11-27T12:43:27.820Z,19.88
2022-11-27T12:46:10.114Z,15.63
2022-11-27T12:48:48.356Z,17.77
2022-11-27T12:51:29.299Z,18.70
2022-11-27T12:54:03.987Z,13.15
2022-11-27T12:56:38.413Z,16.33
2022-11-27T12:59:17.471Z,16.17
2022-11-27T13:01:55.438Z,15.10
2022-11-27T13:04:44.721Z,15.63
2022-11-27T13:07:21.177Z,12.25
2022-11-27T13:09:58.937Z,11.60
2022-11-27T13:13:06.999Z,16.33
2022-11-27T13:15:58.132Z,17.27
2022-11-27T13:18:36.833Z,13.02
2022-11-27T13:21:14.033Z,13.77
2022-11-27T13:23:42.028Z,13.80
2022-11-27T13:26:26.315Z,12.60
2022-11-27T13:28:57.655Z,14.18
2022-11-27T13:31:28.883Z,14.05
2022-11-27T13:34:05.308Z,13.50
2022-11-27T13:36:49.863Z,14.23
2022-11-27T13:39:55.328Z,14.90
2022-11-27T13:42:22.831Z,17.60
2022-11-27T13:45:24.269Z,13.40
2022-11-27T13:47:52.258Z,16.35
2022-11-27T13:50:24.691Z,16.70
2022-11-27T13:53:09.364Z,18.58
2022-11-27T13:55:52.418Z,16.00
2022-11-27T13:58:38.864Z,16.63
2022-11-27T14:01:19.247Z,18.60
2022-11-27T14:03:47.395Z,17.42
2022-11-27T14:06:30.798Z,19.52
2022-11-27T14:09:08.393Z,20.55
2022-11-27T14:11:45.892Z,18.77
2022-11-27T14:14:23.112Z,21.38
2022-11-27T14:17:05.289Z,18.75
2022-11-27T14:19:42.057Z,21.60
2022-11-27T14:23:10.594Z,19.63
2022-11-27T14:25:38.141Z,21.33
2022-11-27T14:28:27.325Z,18.70
2022-11-27T14:30:59.551Z,21.63
2022-11-27T14:33:31.277Z,20.33
2022-11-27T14:36:01.386Z,21.65
2022-11-27T14:38:30.901Z,18.95
2022-11-27T14:41:23.699Z,22.95
2022-11-27T14:44:05.458Z,20.65
2022-11-27T14:46:39.585Z,22.23
2022-11-27T14:49:06.417Z,20.13
2022-11-27T14:51:36.190Z,22.02
2022-11-27T14:54:17.156Z,23.25
2022-11-27T14:56:45.111Z,21.33
2022-11-27T14:59:20.651Z,20.80
2022-11-27T15:02:04.147Z,20.80
2022-11-27T15:04:37.050Z,22.35
2022-11-27T15:07:15.174Z,22.85
2022-11-27T15:09:51.640Z,24.13
2022-11-27T15:12:27.726Z,24.30
2022-11-27T15:15:02.769Z,25.17
2022-11-27T15:17:33.165Z,25.55
2022-11-27T15:20:02.710Z,23.35
2022-11-27T15:22:30.004Z,27.33
2022-11-27T15:25:01.855Z,27.67
2022-11-27T15:27:50.238Z,26.83
2022-11-27T15:30:20.576Z,29.77
2022-11-27T15:32:55.739Z,26.83
2022-11-27T15:35:27.916Z,23.98
2022-11-27T15:38:09.863Z,22.15
2022-11-27T15:40:41.190Z,25.35
2022-11-27T15:43:13.430Z,22.25
2022-11-27T15:45:41.296Z,23.50
2022-11-27T15:48:17.020Z,22.60
2022-11-27T15:50:50.064Z,24.45
2022-11-27T15:53:19.626Z,25.48
2022-11-27T15:55:46.611Z,24.85
2022-11-27T15:58:13.519Z,23.92
2022-11-27T16:00:45.150Z,27.10
2022-11-27T16:03:13.302Z,26.65
2022-11-27T16:05:40.578Z,24.67
2022-11-27T16:08:11.881Z,26.52
2022-11-27T16:10:43.060Z,27.40
2022-11-27T16:13:10.568Z,23.98
2022-11-27T16:15:38.547Z,27.83
2022-11-27T16:18:07.249Z,25.85
2022-11-27T16:20:34.530Z,24.67
2022-11-27T16:23:01.718Z,25.05
2022-11-27T16:25:28.784Z,26.25
2022-11-27T16:28:02.182Z,25.33
2022-11-27T16:30:29.722Z,27.10
2022-11-27T16:32:56.984Z,29.15
2022-11-27T16:35:26.011Z,27.80
2022-11-27T16:37:52.943Z,27.48
2022-11-27T16:40:19.830Z,27.55
2022-11-27T16:42:46.702Z,27.27
2022-11-27T16:45:14.171Z,28.30
2022-11-27T16:47:42.540Z,26.75
2022-11-27T16:50:10.413Z,28.55
2022-11-27T16:52:37.290Z,28.67
2022-11-27T16:55:06.591Z,30.85
2022-11-27T16:57:36.541Z,34.45
2022-11-27T17:00:04.539Z,30.67
2022-11-27T17:02:31.750Z,31.58
2022-11-27T17:04:59.139Z,32.60
2022-11-27T17:07:26.615Z,32.88
2022-11-27T17:09:53.941Z,28.80
2022-11-27T17:12:21.350Z,32.88
2022-11-27T17:14:48.980Z,31.92
2022-11-27T17:17:19.212Z,30.52
2022-11-27T17:19:47.434Z,32.40
2022-11-27T17:22:14.766Z,33.85
2022-11-27T17:24:41.641Z,34.90
2022-11-27T17:27:08.544Z,31.23
2022-11-27T17:29:38.024Z,34.92
2022-11-27T17:32:07.370Z,29.45
2022-11-27T17:34:35.607Z,31.77
2022-11-27T17:37:02.826Z,30.90
2022-11-27T17:39:29.792Z,34.72
2022-11-27T17:41:56.663Z,32.42
2022-11-27T17:44:24.096Z,30.92
2022-11-27T17:46:51.553Z,30.10
2022-11-27T17:49:19.716Z,30.02
2022-11-27T17:51:47.087Z,32.42
2022-11-27T17:54:13.946Z,34.65
2022-11-27T17:56:41.095Z,32.45
2022-11-27T17:59:09.119Z,30.35
2022-11-27T18:01:37.500Z,30.38
2022-11-27T18:04:06.000Z,28.58
2022-11-27T18:06:33.554Z,34.28
2022-11-27T18:09:01.125Z,30.63
2022-11-27T18:11:31.036Z,29.30
2022-11-27T18:13:58.463Z,29.40
2022-11-27T18:16:31.673Z,33.92
2022-11-27T18:18:59.430Z,33.83
2022-11-27T18:21:31.110Z,33.25
2022-11-27T18:29:35.147Z,32.15
2022-11-27T18:32:02.215Z,29.73
2022-11-27T18:34:29.291Z,31.73
2022-11-27T18:36:59.564Z,30.63
2022-11-27T18:39:29.299Z,31.50
2022-11-27T18:44:44.324Z,31.02
2022-11-27T18:47:14.344Z,32.08
2022-11-27T18:49:41.920Z,29.52
2022-11-27T18:52:11.559Z,33.05
2022-11-27T18:54:40.888Z,30.42
2022-11-27T18:57:07.938Z,32.70
2022-11-27T18:59:37.318Z,32.28
2022-11-27T19:02:07.611Z,34.88
2022-11-27T19:04:39.723Z,34.88
2022-11-27T19:07:12.688Z,33.80
2022-11-27T19:09:43.736Z,33.22
2022-11-27T19:12:19.310Z,35.95
2022-11-27T19:14:46.508Z,35.90
2022-11-27T19:17:13.935Z,34.50
2022-11-27T19:19:56.682Z,36.15
2022-11-27T19:22:23.695Z,37.78
2022-11-27T19:24:53.569Z,37.22
2022-11-27T19:27:23.270Z,37.95
2022-11-27T19:32:43.532Z,37.70
2022-11-27T19:38:04.840Z,38.95
2022-11-27T19:40:33.806Z,37.17
2022-11-27T19:43:01.334Z,39.28
2022-11-27T19:45:29.663Z,40.83
2022-11-27T19:47:56.587Z,38.58
2022-11-27T19:50:23.942Z,37.80
2022-11-27T19:52:51.955Z,36.88
2022-11-27T19:55:19.313Z,40.80
2022-11-27T19:57:46.423Z,40.45
2022-11-27T20:00:13.731Z,39.45
2022-11-27T20:02:44.617Z,40.30
2022-11-27T20:05:29.207Z,41.17
2022-11-27T20:08:36.962Z,44.38
2022-11-27T20:11:06.369Z,42.60
2022-11-27T20:13:36.161Z,38.42
2022-11-27T20:16:08.882Z,44.38
2022-11-27T20:18:37.142Z,45.67
2022-11-27T20:21:11.998Z,45.70
2022-11-27T20:23:39.935Z,45.70
2022-11-27T20:26:09.505Z,47.60
2022-11-27T20:28:41.656Z,45.92
2022-11-27T20:31:18.001Z,46.78
2022-11-27T20:33:47.733Z,41.95
2022-11-27T20:36:17.990Z,48.50
2022-11-27T20:38:48.958Z,42.80
2022-11-27T20:41:20.716Z,46.80
2022-11-27T20:43:48.781Z,50.85
2022-11-27T20:46:17.097Z,48.53
2022-11-27T20:48:49.462Z,48.70
2022-11-27T20:51:21.137Z,50.58
2022-11-27T20:53:49.319Z,49.75
2022-11-27T20:56:19.183Z,49.15
2022-11-27T20:58:47.384Z,47.47
2022-11-27T21:01:21.591Z,50.13
2022-11-27T21:03:51.530Z,49.60
2022-11-27T21:06:20.688Z,51.33
2022-11-27T21:08:48.182Z,51.65
2022-11-27T21:11:25.520Z,50.50
2022-11-27T21:14:05.712Z,50.20
2022-11-27T21:16:35.316Z,47.78
2022-11-27T21:19:06.769Z,54.45
2022-11-27T21:21:34.555Z,55.53
2022-11-27T21:24:02.045Z,54.80
2022-11-27T21:26:29.164Z,53.95
2022-11-27T21:28:56.216Z,51.75
2022-11-27T21:31:25.647Z,52.25
2022-11-27T21:33:56.806Z,51.05
2022-11-27T21:36:26.750Z,52.00
2022-11-27T21:38:54.307Z,53.88
2022-11-27T21:41:21.768Z,57.03
2022-11-27T21:43:54.850Z,54.60
2022-11-27T21:46:25.157Z,56.17
2022-11-27T21:48:53.534Z,52.53
2022-11-27T21:51:21.546Z,56.50
2022-11-27T21:53:50.610Z,59.40
2022-11-27T21:56:19.681Z,55.00
2022-11-27T21:58:46.889Z,54.95
2022-11-27T22:01:17.227Z,50.28
2022-11-27T22:03:44.663Z,56.40
2022-11-27T22:06:16.513Z,55.45
2022-11-27T22:08:47.645Z,60.30
2022-11-27T22:11:17.267Z,60.20
2022-11-27T22:13:44.200Z,59.47
2022-11-27T22:16:14.229Z,59.35
2022-11-27T22:18:41.336Z,55.17
2022-11-27T22:21:10.126Z,61.53
2022-11-27T22:23:37.356Z,64.03
2022-11-27T22:26:06.187Z,57.83
2022-11-27T22:28:34.042Z,58.63
2022-11-27T22:31:02.207Z,56.17
2022-11-27T22:33:29.163Z,60.50
2022-11-27T22:35:57.189Z,59.75
2022-11-27T22:38:24.440Z,56.92
2022-11-27T22:40:51.695Z,60.67
2022-11-27T22:43:18.428Z,58.70
2022-11-27T22:45:47.979Z,52.25
2022-11-27T22:48:15.105Z,53.30
2022-11-27T22:50:42.512Z,52.70
2022-11-27T22:53:09.696Z,54.15
2022-11-27T22:55:36.526Z,55.25
2022-11-27T22:58:04.656Z,52.65
2022-11-27T23:00:31.433Z,56.05
2022-11-27T23:02:58.869Z,53.67
2022-11-27T23:05:25.734Z,51.53
2022-11-27T23:07:53.030Z,52.05
2022-11-27T23:10:21.412Z,50.92
2022-11-27T23:12:48.173Z,47.65
2022-11-27T23:15:15.090Z,51.92
2022-11-27T23:17:41.875Z,49.17
2022-11-27T23:20:09.440Z,52.95
2022-11-27T23:22:37.263Z,55.28
2022-11-27T23:25:04.354Z,53.80
2022-11-27T23:27:31.625Z,51.85
2022-11-27T23:29:58.809Z,46.90
2022-11-27T23:32:25.639Z,47.95
2022-11-27T23:34:52.519Z,48.80
2022-11-27T23:37:19.493Z,52.38
2022-11-27T23:39:46.697Z,46.75
2022-11-27T23:42:13.479Z,46.05
2022-11-27T23:44:42.385Z,45.70
2022-11-27T23:47:09.330Z,45.08
2022-11-27T23:49:36.664Z,45.63
2022-11-27T23:52:03.955Z,46.30
2022-11-27T23:54:30.765Z,42.95
2022-11-27T23:56:58.195Z,43.85
2022-11-27T23:59:24.952Z,45.42
